Time;durP1;ratioP1;P1;durP2;ratioP2;P2;SDS_P1;SDS_P2;PMS_P1;PMS_P2;Temp;Humidity;BMP_temperature;BMP_pressure;BME280_temperature;BME280_humidity;BME280_pressure;Samples;Min_cycle;Max_cycle;Signal;HPM_P1;HPM_P2
2022/06/07 00:00:47;;;;;;;2.30;1.57;;;;;;;19.01;69.33;100404.00;5032947;28;20395;-72
2022/06/07 00:03:13;;;;;;;2.40;1.73;;;;;;;19.03;69.18;100401.78;5032962;28;20770;-72
2022/06/07 00:05:40;;;;;;;1.83;1.37;;;;;;;19.01;69.39;100399.34;5032499;28;20802;-73
2022/06/07 00:08:06;;;;;;;3.13;1.33;;;;;;;19.00;69.44;100400.44;5032970;28;20402;-73
2022/06/07 00:10:31;;;;;;;1.17;1.08;;;;;;;18.95;69.64;100405.22;5032806;28;20549;-73
2022/06/07 00:12:56;;;;;;;2.33;1.50;;;;;;;18.94;69.92;100404.41;5032751;28;20482;-74
2022/06/07 00:15:22;;;;;;;3.30;1.53;;;;;;;18.90;70.51;100413.56;5032744;28;20399;-74
2022/06/07 00:17:47;;;;;;;1.05;1.05;;;;;;;18.86;70.52;100402.38;5032586;28;20441;-74
2022/06/07 00:20:13;;;;;;;6.57;1.60;;;;;;;18.86;70.73;100407.03;5032687;28;20387;-74
2022/06/07 00:22:39;;;;;;;1.25;1.25;;;;;;;18.87;70.28;100405.94;5032499;28;20391;-74
2022/06/07 00:25:07;;;;;;;2.63;1.20;;;;;;;18.79;71.38;100409.34;5032561;28;20399;-74
2022/06/07 00:27:32;;;;;;;0.93;0.93;;;;;;;18.78;71.34;100408.53;5032367;28;20409;-74
2022/06/07 00:29:58;;;;;;;1.23;1.07;;;;;;;18.76;71.80;100405.28;5032126;28;20395;-74
2022/06/07 00:32:24;;;;;;;1.23;0.60;;;;;;;18.74;71.58;100402.00;5032659;28;20961;-74
2022/06/07 00:34:50;;;;;;;2.77;1.30;;;;;;;18.77;70.88;100400.59;5032335;28;20391;-74
2022/06/07 00:37:15;;;;;;;2.85;1.45;;;;;;;18.74;71.28;100407.50;5014686;28;20950;-74
2022/06/07 00:39:40;;;;;;;1.67;1.50;;;;;;;18.74;71.47;100417.69;5032310;28;20398;-74
2022/06/07 00:42:06;;;;;;;0.90;0.90;;;;;;;18.71;71.32;100408.09;5031842;28;20406;-74
2022/06/07 00:44:36;;;;;;;2.07;1.20;;;;;;;18.71;71.06;100405.34;5032204;28;20387;-74
2022/06/07 00:47:15;;;;;;;3.67;1.20;;;;;;;18.64;71.86;100399.41;5032209;28;20403;-74
2022/06/07 00:50:22;;;;;;;1.30;1.25;;;;;;;18.58;72.33;100393.22;5032168;28;20746;-74
2022/06/07 00:52:47;;;;;;;1.40;0.90;;;;;;;18.56;72.11;100397.38;5031730;28;20403;-74
2022/06/07 00:55:13;;;;;;;1.50;1.40;;;;;;;18.50;72.70;100393.09;5031919;28;20406;-74
2022/06/07 00:57:39;;;;;;;2.30;1.17;;;;;;;18.46;72.88;100397.50;5031918;28;20967;-74
2022/06/07 01:00:10;;;;;;;1.63;1.30;;;;;;;18.44;73.43;100397.78;5032074;28;20419;-74
2022/06/07 01:02:36;;;;;;;1.95;1.70;;;;;;;18.45;73.05;100393.13;5031881;28;20399;-74
2022/06/07 01:05:01;;;;;;;0.97;0.90;;;;;;;18.42;73.36;100390.97;5031699;28;20415;-74
2022/06/07 01:12:54;;;;;;;0.77;0.77;;;;;;;18.38;73.31;100378.97;5031785;28;20782;-74
2022/06/07 01:15:20;;;;;;;1.70;1.10;;;;;;;18.33;73.56;100382.63;5031787;28;20391;-74
2022/06/07 01:17:45;;;;;;;0.80;0.80;;;;;;;18.31;73.54;100379.34;5031621;28;20479;-74
2022/06/07 01:20:11;;;;;;;1.30;0.80;;;;;;;18.30;73.64;100382.38;5031654;28;20395;-74
2022/06/07 01:22:37;;;;;;;2.20;0.90;;;;;;;18.27;73.49;100380.25;5031449;28;20426;-74
2022/06/07 01:25:04;;;;;;;0.82;0.82;;;;;;;18.25;73.30;100368.75;5031785;28;20387;-74
2022/06/07 01:27:29;;;;;;;0.98;0.82;;;;;;;18.22;73.57;100372.06;5031650;28;20391;-74
2022/06/07 01:29:55;;;;;;;1.47;0.83;;;;;;;18.21;73.45;100373.22;5031356;28;20391;-74
2022/06/07 01:32:20;;;;;;;4.20;1.00;;;;;;;18.20;73.50;100374.31;5031533;28;20476;-74
2022/06/07 01:34:46;;;;;;;1.27;0.70;;;;;;;18.18;73.68;100369.13;5031409;28;20383;-74
2022/06/07 01:37:14;;;;;;;1.15;0.90;;;;;;;18.17;73.48;100364.75;5031669;28;20403;-74
2022/06/07 01:42:23;;;;;;;1.87;0.80;;;;;;;18.11;73.58;100357.72;5031557;28;20457;-74
2022/06/07 01:44:49;;;;;;;1.83;0.82;;;;;;;18.11;73.74;100366.75;5031421;28;20395;-74
2022/06/07 01:47:21;;;;;;;2.72;1.25;;;;;;;18.09;73.73;100370.91;5031379;28;20398;-74
2022/06/07 01:49:47;;;;;;;0.90;0.80;;;;;;;18.05;74.17;100356.13;5031495;28;20466;-74
2022/06/07 01:52:14;;;;;;;0.82;0.63;;;;;;;18.01;74.46;100358.66;5031119;28;20434;-74
2022/06/07 01:54:39;;;;;;;1.73;0.93;;;;;;;18.02;74.71;100356.75;5032358;28;20387;-74
2022/06/07 01:57:05;;;;;;;1.30;0.70;;;;;;;18.05;74.38;100365.19;5017856;28;20457;-74
2022/06/07 01:59:32;;;;;;;3.33;0.80;;;;;;;18.01;74.48;100352.38;5035251;28;20411;-74
2022/06/07 02:01:57;;;;;;;1.07;1.00;;;;;;;18.05;74.06;100365.19;5035507;28;20375;-74
2022/06/07 02:04:23;;;;;;;2.10;1.10;;;;;;;18.02;74.24;100356.75;5034931;28;20441;-74
2022/06/07 02:06:49;;;;;;;1.37;0.90;;;;;;;17.96;74.56;100350.53;5035338;28;20384;-74
2022/06/07 02:09:15;;;;;;;1.95;1.15;;;;;;;17.92;74.30;100341.25;5033751;28;20430;-74
2022/06/07 02:11:41;;;;;;;1.52;0.80;;;;;;;17.90;74.62;100343.50;5035048;28;20417;-75
2022/06/07 02:14:07;;;;;;;1.77;0.52;;;;;;;17.79;74.26;100349.38;5034996;28;20399;-74
2022/06/07 02:16:32;;;;;;;1.70;0.67;;;;;;;17.85;74.31;100343.53;5034985;28;20386;-74
2022/06/07 02:18:58;;;;;;;1.00;0.80;;;;;;;17.89;74.01;100344.59;5035108;28;20395;-74
2022/06/07 02:21:24;;;;;;;0.70;0.67;;;;;;;17.95;74.04;100334.34;5034720;28;20474;-74
2022/06/07 02:23:50;;;;;;;1.77;0.80;;;;;;;17.96;73.84;100334.06;5034867;28;20400;-74
2022/06/07 02:26:25;;;;;;;1.00;1.00;;;;;;;17.95;74.25;100324.19;5035261;28;20403;-74
2022/06/07 02:28:57;;;;;;;0.60;0.60;;;;;;;17.90;74.45;100328.97;5034717;28;20383;-74
2022/06/07 02:31:24;;;;;;;2.05;0.82;;;;;;;17.89;74.70;100321.84;5034928;28;20494;-74
2022/06/07 02:33:50;;;;;;;3.10;0.98;;;;;;;17.92;74.86;100321.25;5034684;28;20430;-74
2022/06/07 02:36:17;;;;;;;0.93;0.90;;;;;;;17.94;74.56;100308.88;5034760;28;20470;-74
2022/06/07 02:38:44;;;;;;;0.90;0.80;;;;;;;17.94;74.59;100310.81;5034647;28;20448;-74
2022/06/07 02:41:15;;;;;;;1.50;0.63;;;;;;;17.92;74.42;100305.59;5034546;28;20386;-74
2022/06/07 02:43:40;;;;;;;2.37;0.90;;;;;;;17.92;74.59;100304.78;5016594;28;20399;-74
2022/06/07 02:46:05;;;;;;;2.10;0.80;;;;;;;17.93;74.04;100296.28;5034616;28;20465;-74
2022/06/07 02:48:31;;;;;;;0.77;0.70;;;;;;;17.99;73.43;100294.28;5034574;28;20794;-74
2022/06/07 02:50:56;;;;;;;3.50;0.80;;;;;;;17.95;73.51;100302.28;5034146;28;20434;-74
2022/06/07 02:53:21;;;;;;;1.00;0.70;;;;;;;17.84;73.97;100295.34;5034372;28;20744;-74
2022/06/07 02:55:46;;;;;;;0.80;0.63;;;;;;;17.80;74.21;100299.78;5034335;28;20383;-74
2022/06/07 02:58:12;;;;;;;1.80;0.87;;;;;;;17.76;74.34;100301.47;5034204;28;20865;-74
2022/06/07 03:00:38;;;;;;;2.90;0.80;;;;;;;17.77;74.21;100303.09;5034209;28;20403;-75
2022/06/07 03:03:03;;;;;;;1.23;0.70;;;;;;;17.70;74.32;100302.66;5034237;28;20445;-74
2022/06/07 03:05:29;;;;;;;2.97;1.10;;;;;;;17.66;74.07;100301.59;5033479;28;20752;-74
2022/06/07 03:07:54;;;;;;;3.00;0.80;;;;;;;17.68;74.05;100298.59;5034044;28;20394;-74
2022/06/07 03:10:19;;;;;;;1.03;0.60;;;;;;;17.71;73.73;100301.56;5033910;28;20401;-74
2022/06/07 03:12:45;;;;;;;0.68;0.68;;;;;;;17.73;73.40;100296.56;5033998;28;20384;-74
2022/06/07 03:15:12;;;;;;;0.98;0.98;;;;;;;17.74;73.13;100300.13;5034035;28;20387;-74
2022/06/07 03:17:38;;;;;;;1.73;1.00;;;;;;;17.66;73.10;100301.59;5033836;28;20422;-74
2022/06/07 03:20:05;;;;;;;1.48;0.88;;;;;;;17.60;73.25;100303.63;5033883;28;20881;-74
2022/06/07 03:22:31;;;;;;;3.33;0.57;;;;;;;17.56;73.34;100308.03;5033666;28;20384;-74
2022/06/07 03:24:56;;;;;;;3.70;0.90;;;;;;;17.53;73.54;100313.25;5033610;28;20391;-74
2022/06/07 03:27:21;;;;;;;0.67;0.60;;;;;;;17.50;73.48;100302.91;5033634;28;20383;-74
2022/06/07 03:29:47;;;;;;;1.37;0.90;;;;;;;17.44;73.72;100309.56;5033634;28;20431;-74
2022/06/07 03:32:12;;;;;;;0.70;0.70;;;;;;;17.40;73.89;100306.59;5033600;28;20422;-74
2022/06/07 03:34:39;;;;;;;0.77;0.77;;;;;;;17.36;74.04;100308.28;5033590;28;20801;-74
2022/06/07 03:37:05;;;;;;;1.38;0.82;;;;;;;17.35;74.02;100309.41;5033660;28;20834;-74
2022/06/07 03:39:30;;;;;;;1.65;0.90;;;;;;;17.40;73.95;100303.03;5033417;28;20395;-74
2022/06/07 03:41:56;;;;;;;1.50;0.90;;;;;;;17.38;74.05;100302.50;5033387;28;20490;-74
2022/06/07 03:44:21;;;;;;;4.32;1.17;;;;;;;17.24;74.21;100301.59;5033541;28;20434;-74
2022/06/07 03:46:47;;;;;;;1.50;0.77;;;;;;;17.21;74.21;100303.00;5033173;28;20379;-74
2022/06/07 03:49:13;;;;;;;1.30;0.93;;;;;;;17.22;74.23;100290.13;5033094;28;20456;-74
2022/06/07 03:51:39;;;;;;;0.85;0.85;;;;;;;17.19;74.50;100302.44;5033127;28;20754;-74
2022/06/07 03:54:05;;;;;;;2.28;0.82;;;;;;;17.19;74.33;100312.63;5033137;28;20383;-74
2022/06/07 03:56:31;;;;;;;1.97;1.80;;;;;;;17.22;74.26;100312.84;5033406;28;20430;-74
2022/06/07 03:58:56;;;;;;;2.50;2.30;;;;;;;17.26;74.06;100313.88;5032978;28;20403;-74
2022/06/07 04:01:24;;;;;;;6.53;5.10;;;;;;;17.19;74.68;100320.84;5033017;28;20399;-74
2022/06/07 04:03:52;;;;;;;3.83;3.20;;;;;;;17.17;74.63;100328.50;5032916;28;20415;-74
2022/06/07 04:06:37;;;;;;;4.30;2.42;;;;;;;17.21;74.54;100329.56;5015091;28;20807;-74
2022/06/07 04:09:03;;;;;;;2.03;1.77;;;;;;;17.22;74.55;100332.03;5032788;28;20414;-74
2022/06/07 04:11:29;;;;;;;1.45;1.17;;;;;;;17.28;74.59;100333.59;5032792;28;20472;-74
2022/06/07 04:13:56;;;;;;;4.03;1.60;;;;;;;17.25;74.70;100333.34;5032774;28;20862;-74
2022/06/07 04:16:24;;;;;;;2.92;2.00;;;;;;;17.15;75.03;100336.22;5032737;28;20391;-74
2022/06/07 04:18:50;;;;;;;8.67;1.97;;;;;;;17.10;75.42;100329.66;5032017;28;20894;-74
2022/06/07 04:21:16;;;;;;;1.80;1.30;;;;;;;17.14;75.33;100329.91;5032813;28;20498;-74
2022/06/07 04:23:42;;;;;;;3.40;1.40;;;;;;;17.11;75.26;100335.97;5032696;28;20398;-74
2022/06/07 04:26:09;;;;;;;1.88;1.00;;;;;;;17.15;75.15;100347.97;5014937;28;20405;-74
2022/06/07 04:28:35;;;;;;;2.78;1.08;;;;;;;17.14;75.17;100340.88;5032530;28;20429;-74
2022/06/07 04:31:01;;;;;;;3.17;1.00;;;;;;;17.07;75.39;100349.41;5032440;28;20403;-74
2022/06/07 04:33:26;;;;;;;3.50;1.80;;;;;;;17.04;75.43;100347.28;5032356;28;20399;-74
2022/06/07 04:35:51;;;;;;;1.20;0.90;;;;;;;17.02;75.49;100348.66;5032401;28;20387;-74
2022/06/07 04:38:17;;;;;;;2.10;1.50;;;;;;;17.04;75.44;100349.19;5032317;28;20403;-74
2022/06/07 04:40:43;;;;;;;2.77;1.10;;;;;;;17.02;74.88;100352.22;5014606;28;20874;-74
2022/06/07 04:43:10;;;;;;;2.00;0.90;;;;;;;16.96;75.46;100356.09;5032209;28;20750;-74
2022/06/07 04:45:37;;;;;;;1.60;0.88;;;;;;;16.91;75.41;100355.34;5032278;28;20948;-74
2022/06/07 04:48:04;;;;;;;3.03;1.23;;;;;;;16.92;75.35;100355.06;5031841;28;20469;-74
2022/06/07 04:50:30;;;;;;;1.83;1.10;;;;;;;16.97;75.20;100362.41;5032006;28;20948;-74
2022/06/07 04:52:55;;;;;;;1.80;0.70;;;;;;;17.01;75.21;100371.66;5032096;28;20392;-74
2022/06/07 04:55:20;;;;;;;3.00;1.10;;;;;;;17.05;75.16;100370.00;5032060;28;20402;-74
2022/06/07 04:57:46;;;;;;;4.87;1.17;;;;;;;17.03;75.26;100373.00;5032079;28;20392;-74
2022/06/07 05:00:17;;;;;;;3.10;1.10;;;;;;;16.98;75.34;100378.53;5032073;28;20391;-74
2022/06/07 05:02:43;;;;;;;2.33;1.30;;;;;;;16.97;75.54;100374.16;5032032;28;20482;-74
2022/06/07 05:05:10;;;;;;;0.93;0.82;;;;;;;16.98;75.54;100377.72;5031604;28;20506;-74
2022/06/07 05:07:35;;;;;;;1.95;1.27;;;;;;;17.00;75.55;100379.06;5031821;28;20505;-74
2022/06/07 05:10:00;;;;;;;1.20;1.20;;;;;;;17.07;75.44;100385.00;5031795;28;20470;-74
2022/06/07 05:12:27;;;;;;;2.20;1.27;;;;;;;17.07;75.55;100387.75;5031764;28;20822;-74
2022/06/07 05:14:53;;;;;;;1.50;1.40;;;;;;;17.07;75.73;100376.81;5031736;28;20394;-74
2022/06/07 05:17:18;;;;;;;1.60;1.60;;;;;;;17.17;75.80;100377.78;5031291;28;20422;-74
2022/06/07 05:19:43;;;;;;;2.20;1.80;;;;;;;17.23;75.45;100385.66;5031515;28;20403;-74
2022/06/07 05:22:09;;;;;;;4.15;1.40;;;;;;;17.19;75.73;100384.59;5031648;28;20473;-74
2022/06/07 05:24:34;;;;;;;1.30;1.20;;;;;;;17.21;75.74;100382.41;5031735;28;20394;-74
2022/06/07 05:27:03;;;;;;;1.67;1.50;;;;;;;17.32;75.44;100381.19;5031624;28;20782;-74
2022/06/07 05:29:44;;;;;;;1.63;1.52;;;;;;;17.40;75.23;100383.28;5031211;28;20398;-74
2022/06/07 05:32:09;;;;;;;2.83;1.50;;;;;;;17.48;74.68;100385.41;5013680;28;20453;-74
2022/06/07 05:34:34;;;;;;;3.83;1.80;;;;;;;17.43;75.44;100390.09;5031509;28;20739;-74
2022/06/07 05:37:00;;;;;;;3.72;1.50;;;;;;;17.43;75.37;100385.44;5031679;28;20539;-74
2022/06/07 05:39:30;;;;;;;2.80;1.60;;;;;;;17.55;75.01;100391.34;5031442;28;20477;-74
2022/06/07 05:41:57;;;;;;;4.00;1.52;;;;;;;17.62;74.63;100388.25;5031485;28;20383;-74
2022/06/07 05:44:24;;;;;;;2.05;1.70;;;;;;;17.57;74.78;100388.31;5031341;28;20874;-74
2022/06/07 05:46:50;;;;;;;1.52;1.30;;;;;;;17.65;74.44;100386.88;5031130;28;20399;-74
2022/06/07 05:49:16;;;;;;;1.10;1.10;;;;;;;17.69;74.25;100385.16;5031401;28;20398;-74
2022/06/07 05:51:42;;;;;;;1.73;1.48;;;;;;;17.74;73.98;100387.84;5031163;28;20437;-74
2022/06/07 05:54:09;;;;;;;1.60;1.50;;;;;;;17.78;74.15;100394.38;5031298;28;20391;-74
2022/06/07 05:56:34;;;;;;;2.50;1.00;;;;;;;17.68;74.18;100403.56;5031413;28;20391;-74
2022/06/07 05:59:00;;;;;;;1.50;1.07;;;;;;;17.66;74.03;100403.00;5031215;28;20739;-74
2022/06/07 06:01:26;;;;;;;2.50;1.02;;;;;;;17.78;73.66;100395.19;5031286;28;20867;-74
2022/06/07 06:03:54;;;;;;;1.50;1.40;;;;;;;17.83;73.68;100400.59;5031169;28;20391;-74
2022/06/07 06:06:19;;;;;;;2.67;1.30;;;;;;;17.85;73.79;100406.59;5031098;28;20453;-74
2022/06/07 06:11:30;;;;;;;2.27;1.30;;;;;;;17.88;73.81;100389.56;5031374;28;20976;-74
2022/06/07 06:13:55;;;;;;;1.30;1.30;;;;;;;17.91;73.67;100391.72;5031161;28;20395;-74
2022/06/07 06:16:22;;;;;;;2.30;1.57;;;;;;;17.87;73.94;100393.44;5031119;28;20805;-74
2022/06/07 06:18:49;;;;;;;1.73;1.27;;;;;;;17.82;74.39;100395.41;5031157;28;20477;-74
2022/06/07 06:21:16;;;;;;;1.50;1.40;;;;;;;17.75;74.29;100397.72;5031190;28;20406;-74
2022/06/07 06:23:41;;;;;;;1.52;1.42;;;;;;;17.71;74.39;100389.25;5031078;28;20936;-74
2022/06/07 06:26:08;;;;;;;2.83;1.20;;;;;;;17.77;74.02;100399.03;5031106;28;20391;-74
2022/06/07 06:28:34;;;;;;;1.00;1.00;;;;;;;17.81;73.98;100402.84;5013335;28;20391;-74
2022/06/07 06:31:02;;;;;;;1.63;1.52;;;;;;;17.80;73.96;100398.44;5031083;28;20494;-74
2022/06/07 06:33:28;;;;;;;1.27;1.25;;;;;;;17.84;73.76;100407.72;5030929;28;20397;-74
2022/06/07 06:35:55;;;;;;;3.17;1.30;;;;;;;17.82;73.79;100400.88;5031067;28;20490;-74
2022/06/07 06:38:22;;;;;;;1.00;0.90;;;;;;;17.88;73.68;100394.25;5030927;28;20398;-74
2022/06/07 06:40:48;;;;;;;2.13;1.17;;;;;;;17.99;73.72;100398.47;5031943;28;20882;-74
2022/06/07 06:43:16;;;;;;;1.40;1.30;;;;;;;18.01;73.49;100401.75;5034456;28;20846;-74
2022/06/07 06:45:42;;;;;;;1.02;0.98;;;;;;;18.00;73.78;100389.13;5034279;28;20490;-74
2022/06/07 06:48:09;;;;;;;1.67;1.30;;;;;;;18.00;73.97;100391.88;5034551;28;20805;-74
2022/06/07 06:50:35;;;;;;;1.20;1.13;;;;;;;17.96;73.76;100388.91;5034270;28;20399;-74
2022/06/07 06:53:00;;;;;;;1.40;1.40;;;;;;;18.03;73.33;100392.09;5034403;28;20751;-74
2022/06/07 06:55:26;;;;;;;2.53;1.50;;;;;;;17.97;73.74;100397.94;5034288;28;20391;-74
2022/06/07 06:57:51;;;;;;;2.70;1.50;;;;;;;18.05;73.48;100408.25;5034259;28;20792;-74
2022/06/07 07:00:17;;;;;;;2.17;1.37;;;;;;;18.13;73.17;100407.59;5034209;28;20400;-74
2022/06/07 07:02:43;;;;;;;1.60;1.50;;;;;;;18.23;73.08;100407.44;5034181;28;20886;-74
2022/06/07 07:05:13;;;;;;;1.70;1.40;;;;;;;18.41;72.85;100405.78;5033886;28;20411;-73
2022/06/07 07:07:41;;;;;;;1.80;1.70;;;;;;;18.70;72.09;100406.47;5033270;28;21306;-74
2022/06/07 07:10:08;;;;;;;2.20;1.70;;;;;;;18.87;71.92;100406.72;5033943;28;20391;-74
2022/06/07 07:12:34;;;;;;;3.05;1.50;;;;;;;18.91;71.51;100402.25;5033853;28;20415;-74
2022/06/07 07:15:02;;;;;;;2.57;1.37;;;;;;;19.02;71.18;100408.41;5033620;28;20390;-74
2022/06/07 07:17:28;;;;;;;1.70;1.60;;;;;;;19.10;70.96;100403.00;5033878;28;20396;-74
2022/06/07 07:19:55;;;;;;;3.50;1.40;;;;;;;19.14;71.05;100403.22;5033828;28;20394;-74
2022/06/07 07:22:22;;;;;;;2.70;1.42;;;;;;;19.18;70.38;100394.09;5018176;28;20395;-74
2022/06/07 07:24:47;;;;;;;1.40;1.30;;;;;;;19.25;69.83;100401.94;5033643;28;20879;-73
2022/06/07 07:27:13;;;;;;;1.50;1.50;;;;;;;19.35;69.38;100398.97;5016073;28;20407;-74
2022/06/07 07:29:38;;;;;;;1.63;1.53;;;;;;;19.36;69.42;100391.56;5033733;28;20391;-73
2022/06/07 07:32:04;;;;;;;1.80;1.70;;;;;;;19.43;69.46;100389.25;5033601;28;20434;-73
2022/06/07 07:34:29;;;;;;;1.63;1.52;;;;;;;19.56;68.79;100383.72;5033551;28;20750;-73
2022/06/07 07:36:55;;;;;;;1.75;1.65;;;;;;;19.60;68.61;100393.00;5012592;28;20397;-73
2022/06/07 07:39:22;;;;;;;2.67;1.50;;;;;;;19.59;68.43;100394.13;5027952;28;20426;-73
2022/06/07 07:41:48;;;;;;;3.30;1.48;;;;;;;19.67;68.03;100390.66;5015464;28;20971;-74
2022/06/07 07:44:16;;;;;;;1.50;1.50;;;;;;;19.69;68.09;100395.88;5033385;28;20477;-73
2022/06/07 07:46:43;;;;;;;1.27;1.27;;;;;;;19.77;66.95;100388.81;5033423;28;20882;-73
2022/06/07 07:49:15;;;;;;;2.13;2.00;;;;;;;19.85;66.99;100388.91;5033282;28;20960;-73
2022/06/07 07:51:43;;;;;;;3.17;1.43;;;;;;;19.90;66.19;100391.56;5033149;28;20456;-73
2022/06/07 07:54:11;;;;;;;2.97;2.03;;;;;;;19.95;65.33;100391.44;5033316;28;20388;-73
2022/06/07 07:56:38;;;;;;;2.00;1.75;;;;;;;19.89;65.94;100387.16;5015441;28;20391;-73
2022/06/07 07:59:05;;;;;;;2.67;2.25;;;;;;;20.03;65.88;100390.72;5015246;28;20727;-73
2022/06/07 08:01:31;;;;;;;2.20;1.90;;;;;;;20.20;64.88;100390.88;5032955;28;20498;-73
2022/06/07 08:03:58;;;;;;;2.30;1.77;;;;;;;20.40;64.79;100388.78;5033055;28;20811;-73
2022/06/07 08:06:25;;;;;;;3.13;2.37;;;;;;;20.48;63.88;100377.06;5015040;28;20759;-73
2022/06/07 08:08:53;;;;;;;2.45;1.60;;;;;;;20.48;64.65;100386.09;5032770;28;20472;-73
2022/06/07 08:11:21;;;;;;;1.70;1.60;;;;;;;20.32;64.28;100384.06;5014771;28;20403;-73
2022/06/07 08:13:46;;;;;;;1.42;1.30;;;;;;;20.21;63.67;100388.94;5032709;28;20763;-73
2022/06/07 08:16:12;;;;;;;3.03;1.80;;;;;;;20.15;63.45;100385.47;5032814;28;20402;-73
2022/06/07 08:18:38;;;;;;;2.28;2.17;;;;;;;20.06;64.07;100383.75;5014914;28;20406;-74
2022/06/07 08:21:07;;;;;;;2.38;1.80;;;;;;;20.12;63.85;100388.84;5032639;28;20449;-73
2022/06/07 08:23:33;;;;;;;1.73;1.42;;;;;;;20.23;64.16;100380.34;5032568;28;20754;-74
2022/06/07 08:26:00;;;;;;;1.37;1.33;;;;;;;20.26;63.85;100380.56;5032684;28;20473;-73
2022/06/07 08:28:26;;;;;;;3.47;1.75;;;;;;;20.32;63.96;100373.03;5032572;28;20384;-73
2022/06/07 08:30:52;;;;;;;1.57;1.47;;;;;;;20.32;64.00;100375.78;5032323;28;20421;-74
2022/06/07 08:38:52;;;;;;;1.10;1.10;;;;;;;20.53;61.10;100363.16;5032518;28;20528;-74
2022/06/07 08:41:46;;;;;;;3.37;1.60;;;;;;;20.65;60.21;100364.22;5014425;28;20431;-74
2022/06/07 08:44:22;;;;;;;2.60;1.50;;;;;;;20.64;60.70;100365.34;5014545;28;20878;-73
2022/06/07 08:46:51;;;;;;;1.70;1.25;;;;;;;20.81;59.73;100355.56;5032235;28;20391;-73
2022/06/07 08:49:18;;;;;;;2.30;1.20;;;;;;;20.95;60.05;100356.28;5032164;28;20418;-73
2022/06/07 08:52:18;;;;;;;3.40;1.10;;;;;;;21.05;59.08;100362.34;5032075;28;20407;-74
2022/06/07 08:54:44;;;;;;;3.40;0.80;;;;;;;20.89;58.66;100360.31;5030377;28;20496;-74
2022/06/07 08:57:23;;;;;;;1.35;0.80;;;;;;;20.77;58.79;100352.63;5032090;28;20403;-73
2022/06/07 08:59:53;;;;;;;1.20;0.77;;;;;;;20.66;58.51;100365.03;5032059;28;20422;-73
2022/06/07 09:02:28;;;;;;;2.70;0.68;;;;;;;20.56;58.70;100359.78;5031983;28;20445;-73
2022/06/07 09:04:55;;;;;;;0.93;0.60;;;;;;;20.58;59.09;100354.78;5031352;28;20905;-73
2022/06/07 09:07:20;;;;;;;1.27;0.50;;;;;;;20.77;58.70;100357.31;5031849;28;20418;-73
2022/06/07 09:12:35;;;;;;;2.20;0.70;;;;;;;21.10;56.41;100351.22;5029115;28;20460;-73
2022/06/07 09:15:14;;;;;;;2.90;1.00;;;;;;;21.37;56.37;100341.13;5031733;28;20446;-73
2022/06/07 09:17:52;;;;;;;0.80;0.60;;;;;;;21.60;55.30;100342.66;5031866;28;20387;-73
2022/06/07 09:20:23;;;;;;;20.33;1.40;;;;;;;21.71;55.88;100338.44;5031699;28;20387;-73
2022/06/07 09:22:54;;;;;;;2.50;1.10;;;;;;;21.88;54.71;100332.13;5014180;28;20410;-73
2022/06/07 09:25:35;;;;;;;1.50;0.82;;;;;;;21.96;54.46;100331.38;5031652;28;20393;-73
2022/06/07 09:28:03;;;;;;;0.70;0.45;;;;;;;22.17;52.80;100333.16;5031875;28;20371;-73
2022/06/07 09:30:33;;;;;;;1.60;0.63;;;;;;;22.46;52.35;100334.44;5031808;28;20810;-73
2022/06/07 09:33:07;;;;;;;0.95;0.45;;;;;;;22.54;51.60;100336.38;5031567;28;20408;-73
2022/06/07 09:35:42;;;;;;;0.60;0.50;;;;;;;22.53;51.30;100331.97;5013879;28;20392;-73
2022/06/07 09:38:21;;;;;;;0.50;0.50;;;;;;;22.70;50.58;100329.22;5030645;28;20406;-73
2022/06/07 09:40:52;;;;;;;0.52;0.40;;;;;;;22.93;49.31;100327.84;5031317;28;20443;-74
2022/06/07 09:43:20;;;;;;;0.80;0.57;;;;;;;23.01;49.49;100328.97;5013837;28;20406;-73
2022/06/07 09:46:00;;;;;;;2.47;0.77;;;;;;;23.04;50.93;100337.44;5031530;28;20460;-73
2022/06/07 09:48:41;;;;;;;0.95;0.57;;;;;;;23.54;49.72;100329.25;5013768;28;20410;-73
2022/06/07 09:51:28;;;;;;;2.05;1.00;;;;;;;23.58;50.21;100327.41;5031344;28;20505;-73
2022/06/07 09:54:03;;;;;;;1.45;0.90;;;;;;;23.43;50.40;100324.44;5016647;28;20398;-73
2022/06/07 09:56:46;;;;;;;0.95;0.85;;;;;;;23.29;50.22;100321.84;5013802;28;20409;-73
2022/06/07 09:59:57;;;;;;;1.00;0.80;;;;;;;24.26;49.08;100323.38;5013525;28;20387;-73
2022/06/07 10:03:08;;;;;;;1.02;0.90;;;;;;;23.75;49.65;100318.19;5031430;28;20383;-73
2022/06/07 10:05:45;;;;;;;1.33;1.20;;;;;;;23.70;50.23;100316.47;5015316;28;20411;-73
2022/06/07 10:08:16;;;;;;;0.70;0.70;;;;;;;23.59;49.75;100320.75;5013722;28;20398;-73
2022/06/07 10:10:56;;;;;;;0.82;0.80;;;;;;;23.19;50.16;100311.16;5030955;28;20403;-73
2022/06/07 10:13:52;;;;;;;2.63;0.95;;;;;;;22.90;50.59;100314.72;5031101;28;20387;-73
2022/06/07 10:16:36;;;;;;;0.70;0.70;;;;;;;22.67;51.33;100305.03;5033076;28;20383;-73
2022/06/07 10:19:07;;;;;;;1.10;0.57;;;;;;;22.61;51.50;100315.41;5034994;28;20383;-73
2022/06/07 10:21:57;;;;;;;0.80;0.80;;;;;;;22.77;51.10;100309.38;5034996;28;20402;-74
2022/06/07 10:24:47;;;;;;;0.90;0.70;;;;;;;22.61;51.55;100300.78;5034864;28;20452;-73
2022/06/07 10:27:15;;;;;;;1.30;1.13;;;;;;;22.49;51.22;100298.69;5019100;28;20391;-73
2022/06/07 10:30:08;;;;;;;1.17;1.02;;;;;;;22.45;52.00;100300.50;5034829;28;20480;-73
2022/06/07 10:32:49;;;;;;;1.92;1.75;;;;;;;22.54;51.67;100306.81;5016982;28;20418;-73
2022/06/07 10:35:21;;;;;;;1.83;1.50;;;;;;;22.58;52.01;100302.25;5020554;28;20430;-73
2022/06/07 10:38:08;;;;;;;2.90;1.63;;;;;;;22.52;53.38;100298.06;5034729;28;20433;-73
2022/06/07 10:41:07;;;;;;;1.17;1.10;;;;;;;22.62;53.30;100297.69;5034306;28;20411;-73
2022/06/07 10:44:06;;;;;;;1.10;1.10;;;;;;;22.82;52.89;100300.94;5034506;28;20395;-73
2022/06/07 10:46:35;;;;;;;2.25;1.40;;;;;;;22.92;52.04;100298.59;5034615;28;20445;-73
2022/06/07 10:49:19;;;;;;;1.50;1.35;;;;;;;22.84;52.01;100296.69;5034407;28;20471;-73
2022/06/07 10:54:45;;;;;;;2.63;1.13;;;;;;;22.86;52.25;100290.81;5034279;28;20378;-73
2022/06/07 10:57:19;;;;;;;1.17;1.08;;;;;;;22.90;51.49;100289.84;5034321;28;20444;-73
2022/06/07 10:59:44;;;;;;;2.85;1.40;;;;;;;22.95;50.93;100286.09;5034248;28;20444;-73
2022/06/07 11:02:19;;;;;;;1.63;1.63;;;;;;;22.99;51.12;100282.31;5034236;28;20426;-73
2022/06/07 11:10:32;;;;;;;2.15;2.05;;;;;;;23.11;51.55;100271.38;5022637;28;20394;-73
2022/06/07 11:13:19;;;;;;;1.50;1.50;;;;;;;22.92;51.91;100276.50;5034013;28;20411;-73
2022/06/07 11:16:07;;;;;;;2.03;1.90;;;;;;;22.89;52.23;100277.16;5034055;28;20395;-74
2022/06/07 11:18:33;;;;;;;2.28;2.08;;;;;;;23.06;51.64;100266.03;5019647;28;20925;-74
2022/06/07 11:21:01;;;;;;;1.77;1.67;;;;;;;23.24;51.16;100270.34;5033866;28;20430;-73
2022/06/07 11:23:31;;;;;;;2.42;1.60;;;;;;;23.43;50.74;100267.16;5033779;28;20493;-73
2022/06/07 11:26:17;;;;;;;3.15;1.67;;;;;;;24.14;48.75;100267.94;5033602;28;20402;-73
2022/06/07 11:28:49;;;;;;;1.70;1.02;;;;;;;25.22;47.16;100261.03;5033754;28;20414;-73
2022/06/07 11:31:20;;;;;;;1.00;1.00;;;;;;;26.85;44.18;100265.00;5033550;28;20446;-73
2022/06/07 11:33:51;;;;;;;1.48;1.38;;;;;;;27.33;41.91;100257.06;5033549;28;20391;-73
2022/06/07 11:36:19;;;;;;;2.03;1.67;;;;;;;26.52;42.76;100259.75;5033621;28;20785;-72
2022/06/07 11:38:56;;;;;;;2.10;1.45;;;;;;;25.42;44.53;100258.47;5033446;28;20474;-73
2022/06/07 11:41:36;;;;;;;2.15;1.63;;;;;;;24.66;46.68;100256.34;5033258;28;20830;-73
2022/06/07 11:44:13;;;;;;;1.40;1.27;;;;;;;24.37;47.14;100262.03;5018767;28;20394;-73
2022/06/07 11:46:50;;;;;;;1.73;1.05;;;;;;;24.68;46.46;100251.25;5033399;28;20390;-72
2022/06/07 11:49:18;;;;;;;2.30;1.20;;;;;;;25.01;46.45;100243.69;5032892;28;20403;-73
2022/06/07 11:51:56;;;;;;;2.30;1.70;;;;;;;24.87;46.46;100251.53;5033227;28;20414;-73
2022/06/07 11:54:27;;;;;;;1.63;1.50;;;;;;;24.44;46.99;100245.63;5033400;28;20387;-73
2022/06/07 11:56:56;;;;;;;1.98;1.83;;;;;;;24.41;47.12;100247.13;5033268;28;20425;-73
2022/06/07 11:59:21;;;;;;;1.50;1.50;;;;;;;24.83;46.35;100233.19;5031582;28;20442;-74
2022/06/07 12:02:08;;;;;;;2.60;1.20;;;;;;;24.98;46.29;100238.03;5015320;28;20427;-73